Time;durP1;ratioP1;P1;durP2;ratioP2;P2;SDS_P1;SDS_P2;PMS_P1;PMS_P2;Temp;Humidity;BMP_temperature;BMP_pressure;BME280_temperature;BME280_humidity;BME280_pressure;Samples;Min_cycle;Max_cycle;Signal;HPM_P1;HPM_P2
2023/07/05 00:01:33;;;;;;;4.60;2.70;;;18.50;99.90;;;19.16;100.00;97500.53;4955743;28;20466;-85
2023/07/05 00:04:03;;;;;;;6.47;3.10;;;18.50;99.90;;;19.21;100.00;97495.28;4957572;28;20556;-85
2023/07/05 00:06:31;;;;;;;5.23;2.40;;;18.50;99.90;;;19.21;100.00;97495.28;4956618;28;20907;-86
2023/07/05 00:09:00;;;;;;;12.30;2.17;;;18.50;99.90;;;19.18;100.00;97490.50;4956121;28;20469;-86
2023/07/05 00:11:29;;;;;;;10.50;2.60;;;18.50;99.90;;;19.15;100.00;97483.06;4955815;28;20512;-86
2023/07/05 00:14:06;;;;;;;7.93;3.30;;;18.40;99.90;;;19.10;100.00;97478.50;4956782;28;20508;-85
2023/07/05 00:16:35;;;;;;;11.60;2.67;;;18.40;99.90;;;19.11;100.00;97474.00;4959578;28;21058;-86
2023/07/05 00:19:07;;;;;;;3.57;2.50;;;18.40;99.90;;;19.11;100.00;97474.00;4957255;28;20530;-86
2023/07/05 00:21:36;;;;;;;7.67;2.20;;;18.40;99.90;;;19.09;100.00;97463.66;4957458;28;20471;-85
2023/07/05 00:24:17;;;;;;;4.10;2.30;;;18.40;99.90;;;19.07;100.00;97459.66;4957740;28;20472;-86
2023/07/05 00:26:45;;;;;;;4.80;2.53;;;18.30;99.90;;;18.99;100.00;97465.44;4957520;28;20994;-85
2023/07/05 00:29:15;;;;;;;5.83;2.53;;;18.30;99.90;;;18.99;100.00;97470.75;4959515;28;20513;-85
2023/07/05 00:31:43;;;;;;;3.10;2.20;;;18.30;99.90;;;19.00;100.00;97464.41;4955415;28;21036;-86
2023/07/05 00:34:41;;;;;;;5.60;2.50;;;18.30;99.90;;;19.00;100.00;97462.53;4956638;28;20464;-85
2023/07/05 00:37:09;;;;;;;4.10;2.40;;;18.30;99.90;;;18.97;100.00;97456.94;4955373;28;20476;-85
2023/07/05 00:39:38;;;;;;;4.00;2.70;;;18.30;99.90;;;18.98;100.00;97454.06;4958779;28;20473;-85
2023/07/05 00:42:07;;;;;;;3.93;1.63;;;18.20;99.90;;;19.00;100.00;97456.44;4958270;28;20911;-86
2023/07/05 00:45:35;;;;;;;8.80;2.23;;;18.20;99.90;;;18.95;100.00;97459.84;4957511;28;20479;-85
2023/07/05 00:48:05;;;;;;;8.40;2.50;;;18.20;99.90;;;18.94;100.00;97452.97;4958709;28;20465;-85
2023/07/05 00:50:44;;;;;;;3.87;2.43;;;18.20;99.90;;;18.98;100.00;97458.56;4959441;28;20530;-86
2023/07/05 00:53:27;;;;;;;4.00;2.00;;;18.20;99.90;;;18.94;100.00;97446.88;4956550;28;20489;-85
2023/07/05 00:56:06;;;;;;;13.40;2.23;;;18.20;99.90;;;18.92;100.00;97449.75;4956783;28;20469;-85
2023/07/05 00:58:35;;;;;;;3.77;2.20;;;18.20;99.90;;;18.92;100.00;97433.06;4958815;28;20477;-85
2023/07/05 01:01:04;;;;;;;6.43;2.50;;;18.20;99.90;;;18.88;100.00;97437.28;4954019;28;20466;-85
2023/07/05 01:03:35;;;;;;;6.53;2.40;;;18.20;99.90;;;18.87;100.00;97433.03;4959634;28;20574;-86
2023/07/05 01:06:06;;;;;;;4.47;2.53;;;18.10;99.90;;;18.86;100.00;97420.84;4958195;28;20477;-85
2023/07/05 01:08:34;;;;;;;3.30;2.00;;;18.10;99.90;;;18.88;100.00;97414.22;4961229;28;20538;-86
2023/07/05 01:11:19;;;;;;;2.60;2.13;;;18.10;99.90;;;18.86;100.00;97415.53;4957811;28;20496;-89
2023/07/05 01:14:08;;;;;;;4.20;2.60;;;18.10;99.90;;;18.85;100.00;97416.59;4960916;28;20476;-86
2023/07/05 01:16:57;;;;;;;3.63;2.00;;;18.10;99.90;;;18.83;100.00;97424.81;4960811;28;20974;-86
2023/07/05 01:19:57;;;;;;;4.43;2.00;;;18.10;99.90;;;18.82;100.00;97417.09;4964255;28;20548;-85
2023/07/05 01:22:59;;;;;;;4.20;2.30;;;18.10;99.90;;;18.81;100.00;97420.81;4962738;28;21042;-86
2023/07/05 01:26:08;;;;;;;2.30;2.10;;;18.10;99.90;;;18.81;100.00;97412.88;4963414;28;20513;-84
2023/07/05 01:29:37;;;;;;;4.70;2.30;;;18.10;99.90;;;18.81;100.00;97410.22;4960749;28;20471;-85
2023/07/05 01:32:14;;;;;;;2.80;1.90;;;18.10;99.90;;;18.81;100.00;97405.69;4953484;28;20488;-85
2023/07/05 01:34:50;;;;;;;2.80;2.17;;;18.10;99.90;;;18.80;100.00;97404.13;4961481;28;20468;-85
2023/07/05 01:37:33;;;;;;;5.57;2.23;;;18.10;99.90;;;18.83;100.00;97392.22;4960905;28;20464;-85
2023/07/05 01:40:11;;;;;;;1.60;1.50;;;18.10;99.90;;;18.79;100.00;97396.41;4961153;28;21179;-85
2023/07/05 01:42:42;;;;;;;5.03;2.20;;;18.10;99.90;;;18.82;100.00;97380.00;4960959;28;20954;-85
2023/07/05 01:45:12;;;;;;;2.60;2.13;;;18.10;99.90;;;18.83;100.00;97394.84;4960529;28;20469;-86
2023/07/05 01:47:52;;;;;;;2.53;2.10;;;18.10;99.90;;;18.86;100.00;97394.34;4960845;28;20481;-85
2023/07/05 01:50:34;;;;;;;13.13;5.23;;;18.10;99.90;;;18.84;100.00;97383.22;4966882;28;20484;-90
2023/07/05 01:56:24;;;;;;;2.93;2.13;;;18.10;99.90;;;18.85;100.00;97384.78;4961039;28;20471;-85
2023/07/05 01:58:57;;;;;;;3.70;2.23;;;18.10;99.90;;;18.85;100.00;97384.78;4960682;28;20472;-85
2023/07/05 02:01:28;;;;;;;3.23;2.30;;;18.10;99.90;;;18.90;100.00;97384.84;4958593;28;20538;-86
2023/07/05 02:04:01;;;;;;;2.40;2.00;;;18.10;99.90;;;18.90;100.00;97392.78;4958671;28;20501;-85
2023/07/05 02:06:31;;;;;;;4.73;2.10;;;18.10;99.90;;;18.94;100.00;97399.16;4960196;28;20478;-85
2023/07/05 02:09:00;;;;;;;2.63;1.80;;;18.10;99.90;;;18.90;100.00;97390.13;4957853;28;20472;-86
2023/07/05 02:11:28;;;;;;;5.27;1.93;;;18.20;99.90;;;18.89;100.00;97385.88;4960697;28;20512;-84
2023/07/05 02:16:41;;;;;;;2.70;2.17;;;18.20;99.90;;;18.94;100.00;97351.47;4958789;28;20492;-85
2023/07/05 02:19:11;;;;;;;2.30;2.00;;;18.20;99.90;;;18.95;100.00;97348.53;4959796;28;20477;-85
2023/07/05 02:21:40;;;;;;;2.13;1.60;;;18.20;99.90;;;18.96;100.00;97333.44;4962043;28;20472;-85
2023/07/05 02:24:24;;;;;;;4.10;2.23;;;18.20;99.90;;;18.95;100.00;97345.91;4958315;28;20476;-85
2023/07/05 02:26:55;;;;;;;4.07;2.10;;;18.20;99.90;;;18.93;100.00;97355.16;4961466;28;20460;-86
2023/07/05 02:29:24;;;;;;;3.33;2.73;;;18.30;99.90;;;18.91;100.00;97365.25;4964370;28;20469;-85
2023/07/05 02:31:53;;;;;;;2.13;1.70;;;18.20;99.90;;;18.92;100.00;97353.56;4960263;28;20492;-85
2023/07/05 02:34:22;;;;;;;2.10;1.63;;;18.20;99.90;;;18.93;100.00;97355.16;4965308;28;21005;-84
2023/07/05 02:36:51;;;;;;;2.43;1.87;;;18.20;99.90;;;18.87;100.00;97350.91;4961897;28;20552;-85
2023/07/05 02:39:20;;;;;;;6.10;2.00;;;18.30;99.90;;;18.88;100.00;97341.91;4961670;28;20465;-85
2023/07/05 02:41:48;;;;;;;1.90;1.57;;;18.30;99.90;;;18.86;100.00;97359.91;4958657;28;20526;-85
2023/07/05 02:44:17;;;;;;;3.43;2.40;;;18.30;99.90;;;18.84;100.00;97362.03;4959716;28;20473;-85
2023/07/05 02:46:45;;;;;;;1.87;1.70;;;18.20;99.90;;;18.88;100.00;97358.56;4958076;28;20487;-85
2023/07/05 02:49:14;;;;;;;7.77;2.20;;;18.20;99.90;;;18.90;100.00;97350.38;4962284;28;20979;-85
2023/07/05 02:51:43;;;;;;;5.13;2.00;;;18.20;99.90;;;18.89;100.00;97370.78;4958678;28;21131;-85
2023/07/05 02:54:33;;;;;;;2.70;2.23;;;18.20;99.90;;;18.91;100.00;97357.28;4962204;28;20495;-86
2023/07/05 02:57:02;;;;;;;4.23;2.00;;;18.20;99.90;;;18.93;100.00;97365.75;4957664;28;21009;-85
2023/07/05 02:59:31;;;;;;;2.70;1.93;;;18.20;99.90;;;18.92;100.00;97364.97;4960426;28;20465;-84
2023/07/05 03:01:59;;;;;;;6.83;1.93;;;18.20;99.90;;;18.83;100.00;97355.13;4963297;28;20559;-85
2023/07/05 03:04:29;;;;;;;2.00;1.50;;;18.20;99.90;;;18.85;100.00;97364.41;4961752;28;20560;-85
2023/07/05 03:06:59;;;;;;;7.87;2.13;;;18.20;99.90;;;18.82;100.00;97370.22;4957856;28;20476;-85
2023/07/05 03:09:27;;;;;;;3.40;1.80;;;18.20;99.90;;;18.78;100.00;97369.13;4956195;28;20507;-85
2023/07/05 03:11:55;;;;;;;5.67;2.17;;;18.20;99.90;;;18.82;100.00;97385.31;4959424;28;20535;-85
2023/07/05 03:14:24;;;;;;;8.00;1.80;;;18.20;99.90;;;18.77;100.00;97382.63;4960090;28;20494;-84
2023/07/05 03:16:52;;;;;;;5.20;2.43;;;18.10;99.90;;;18.74;100.00;97386.59;4958282;28;20464;-82
2023/07/05 03:19:21;;;;;;;3.47;1.97;;;18.10;99.90;;;18.73;100.00;97398.25;4961617;28;20466;-83
2023/07/05 03:21:50;;;;;;;5.10;1.70;;;18.20;99.90;;;18.70;100.00;97398.75;4959004;28;20476;-82
2023/07/05 03:24:19;;;;;;;1.67;1.40;;;18.10;99.90;;;18.74;100.00;97405.16;4956859;28;21097;-82
2023/07/05 03:26:52;;;;;;;1.63;1.43;;;18.10;99.90;;;18.80;100.00;97403.31;4957343;28;20465;-83
2023/07/05 03:29:21;;;;;;;8.50;1.43;;;18.10;99.90;;;18.76;100.00;97408.31;4960431;28;20465;-83
2023/07/05 03:31:49;;;;;;;4.03;1.60;;;18.10;99.90;;;18.70;100.00;97405.91;4959203;28;20472;-83
2023/07/05 03:34:18;;;;;;;2.03;1.50;;;18.10;99.90;;;18.65;100.00;97405.84;4959503;28;20457;-83
2023/07/05 03:36:46;;;;;;;4.77;1.63;;;18.10;99.90;;;18.56;100.00;97398.41;4959503;28;20476;-83
2023/07/05 03:39:15;;;;;;;3.17;1.70;;;18.00;99.90;;;18.48;100.00;97412.06;4961678;28;20472;-82
2023/07/05 03:41:45;;;;;;;3.53;1.60;;;18.00;99.90;;;18.46;100.00;97416.81;4959750;28;21033;-82
2023/07/05 03:44:14;;;;;;;2.23;1.60;;;17.90;99.90;;;18.49;100.00;97418.97;4962404;28;20986;-83
2023/07/05 03:46:43;;;;;;;7.20;2.03;;;17.80;99.90;;;18.35;100.00;97423.06;4960665;28;20462;-83
2023/07/05 03:49:11;;;;;;;2.33;1.50;;;17.80;99.90;;;18.29;100.00;97426.72;4957429;28;20998;-83
2023/07/05 03:51:40;;;;;;;3.80;2.00;;;17.80;99.90;;;18.24;100.00;97431.16;4957968;28;21201;-83
2023/07/05 03:54:08;;;;;;;2.47;1.60;;;17.70;99.90;;;18.23;100.00;97440.16;4960062;28;20504;-82
2023/07/05 03:56:37;;;;;;;4.87;1.60;;;17.60;99.90;;;18.21;100.00;97445.72;4960025;28;20469;-83
2023/07/05 03:59:13;;;;;;;3.70;1.60;;;17.60;99.90;;;18.17;100.00;97446.44;4964108;28;20826;-83
2023/07/05 04:01:42;;;;;;;3.53;1.77;;;17.60;99.90;;;18.13;100.00;97442.69;4960071;28;20472;-82
2023/07/05 04:04:10;;;;;;;5.40;1.90;;;17.50;99.90;;;18.05;100.00;97454.53;4957474;28;20491;-82
2023/07/05 04:06:39;;;;;;;5.80;1.90;;;17.50;99.90;;;17.93;100.00;97456.53;4955879;28;20514;-83
2023/07/05 04:09:08;;;;;;;2.93;2.03;;;17.40;99.90;;;17.86;100.00;97456.72;4957881;28;20461;-83
2023/07/05 04:11:36;;;;;;;7.80;4.53;;;17.30;99.90;;;17.77;100.00;97452.13;4956527;28;20865;-83
2023/07/05 04:14:05;;;;;;;3.20;2.20;;;17.30;99.90;;;17.67;100.00;97457.28;4958434;28;20552;-83
2023/07/05 04:16:34;;;;;;;4.00;2.37;;;17.20;99.90;;;17.66;100.00;97460.97;4960657;28;20460;-83
2023/07/05 04:19:28;;;;;;;3.33;2.07;;;17.20;99.90;;;17.61;100.00;97461.72;4956325;28;20962;-82
2023/07/05 04:21:56;;;;;;;2.53;1.93;;;17.10;99.90;;;17.59;100.00;97461.16;4956454;28;20472;-83
2023/07/05 04:24:25;;;;;;;4.43;2.60;;;17.20;99.90;;;17.45;100.00;97473.13;4958635;28;20500;-83
2023/07/05 04:26:53;;;;;;;5.67;2.60;;;17.10;99.90;;;17.41;100.00;97470.16;4959332;28;20465;-82
2023/07/05 04:29:22;;;;;;;4.07;2.33;;;17.00;99.90;;;17.42;100.00;97466.44;4960365;28;20971;-82
2023/07/05 04:31:52;;;;;;;5.27;2.10;;;16.90;99.90;;;17.35;100.00;97476.44;4959609;28;20476;-83
2023/07/05 04:34:20;;;;;;;3.77;2.37;;;16.90;99.90;;;17.33;100.00;97483.78;4962294;28;20528;-83
2023/07/05 04:36:48;;;;;;;5.20;2.40;;;16.90;99.90;;;17.35;100.00;97481.72;4960113;28;20473;-82
2023/07/05 04:39:29;;;;;;;3.27;2.40;;;16.80;99.90;;;17.35;100.00;97486.19;4960351;28;20470;-82
2023/07/05 04:41:58;;;;;;;4.20;2.70;;;16.80;99.90;;;17.34;100.00;97485.41;4954491;28;20468;-84
2023/07/05 04:44:26;;;;;;;4.70;3.60;;;16.70;99.90;;;17.29;100.00;97490.59;4959486;28;20894;-83
2023/07/05 04:46:56;;;;;;;7.33;2.90;;;16.70;99.90;;;17.23;100.00;97504.78;4957139;28;20473;-83
2023/07/05 04:49:24;;;;;;;3.87;2.57;;;16.70;99.90;;;17.11;100.00;97509.38;4954289;28;20466;-83
2023/07/05 04:51:53;;;;;;;5.30;2.63;;;16.70;99.90;;;17.03;100.00;97523.78;4956536;28;21002;-82
2023/07/05 04:54:21;;;;;;;3.07;2.30;;;16.60;99.90;;;17.07;100.00;97524.09;4960741;28;20505;-84
2023/07/05 04:56:50;;;;;;;4.40;2.50;;;16.60;99.90;;;17.03;100.00;97522.97;4958784;28;20474;-83
2023/07/05 04:59:19;;;;;;;4.70;2.90;;;16.50;99.90;;;17.00;100.00;97528.75;4966477;28;20464;-82
2023/07/05 05:01:48;;;;;;;3.90;2.80;;;16.50;99.90;;;16.95;100.00;97528.66;4966141;28;20473;-83
2023/07/05 05:04:18;;;;;;;4.47;2.73;;;16.50;99.90;;;16.89;100.00;97537.56;4965952;28;20505;-83
2023/07/05 05:06:47;;;;;;;3.90;2.70;;;16.50;99.90;;;16.84;100.00;97540.09;4962865;28;20543;-83
2023/07/05 05:09:24;;;;;;;5.70;3.03;;;16.30;99.90;;;16.85;100.00;97539.06;4966608;28;20496;-83
2023/07/05 05:11:53;;;;;;;4.37;2.87;;;16.30;99.90;;;16.86;100.00;97540.69;4963804;28;20472;-83
2023/07/05 05:14:21;;;;;;;5.37;3.20;;;16.30;99.90;;;16.83;100.00;97552.53;4963239;28;20504;-83
2023/07/05 05:16:50;;;;;;;5.03;3.60;;;16.30;99.90;;;16.69;100.00;97561.78;4962411;28;20472;-83
2023/07/05 05:19:20;;;;;;;8.30;2.67;;;16.20;99.90;;;16.56;100.00;97547.03;4965564;28;20468;-83
2023/07/05 05:21:48;;;;;;;9.13;5.90;;;16.10;99.90;;;16.54;100.00;97557.00;4958519;28;20610;-84
2023/07/05 05:24:17;;;;;;;7.13;4.23;;;16.10;99.90;;;16.52;100.00;97556.41;4958899;28;20526;-83
2023/07/05 05:26:47;;;;;;;8.00;3.77;;;16.00;99.90;;;16.44;100.00;97567.38;4960125;28;20477;-83
2023/07/05 05:29:15;;;;;;;11.43;3.50;;;16.00;99.90;;;16.39;100.00;97567.25;4959972;28;20468;-83
2023/07/05 05:31:44;;;;;;;5.77;3.50;;;16.00;99.90;;;16.34;100.00;97561.91;4956573;28;20473;-82
2023/07/05 05:34:13;;;;;;;5.60;3.23;;;15.90;99.90;;;16.42;100.00;97566.78;4961015;28;20594;-83
2023/07/05 05:36:42;;;;;;;6.93;3.37;;;15.90;99.90;;;16.40;100.00;97566.25;4958600;28;20464;-83
2023/07/05 05:39:11;;;;;;;5.93;3.30;;;16.00;99.90;;;16.27;100.00;97563.88;4963038;28;20464;-83
2023/07/05 05:41:39;;;;;;;36.90;19.13;;;15.90;99.90;;;16.32;100.00;97573.72;4960241;28;20842;-83
2023/07/05 05:44:08;;;;;;;12.13;3.77;;;15.80;99.90;;;16.34;100.00;97576.94;4956100;28;20457;-83
2023/07/05 05:46:38;;;;;;;10.43;4.07;;;15.80;99.90;;;16.39;100.00;97580.47;4959997;28;20472;-83
2023/07/05 05:49:07;;;;;;;7.93;2.60;;;15.80;99.90;;;16.33;100.00;97564.78;4961677;28;20550;-83
2023/07/05 05:51:36;;;;;;;4.27;3.00;;;15.90;99.90;;;16.38;100.00;97586.00;4958658;28;20506;-83
2023/07/05 05:54:06;;;;;;;7.90;4.20;;;15.90;99.90;;;16.35;100.00;97581.97;4962771;28;20492;-83
2023/07/05 05:56:34;;;;;;;5.10;3.20;;;15.80;99.90;;;16.22;100.00;97576.97;4959695;28;20462;-84
2023/07/05 05:59:06;;;;;;;5.70;3.70;;;15.80;99.90;;;16.26;100.00;97583.38;4962096;28;20461;-83
2023/07/05 06:01:34;;;;;;;5.97;3.83;;;15.70;99.90;;;16.22;100.00;97581.44;4960950;28;20473;-84
2023/07/05 06:04:04;;;;;;;4.90;3.00;;;15.70;99.90;;;16.21;100.00;97577.22;4960885;28;20473;-84
2023/07/05 06:06:32;;;;;;;6.13;3.50;;;15.70;99.90;;;16.24;100.00;97585.47;4957914;28;20522;-84
2023/07/05 06:09:01;;;;;;;5.93;3.73;;;15.80;99.90;;;16.21;100.00;97596.47;4959503;28;20476;-84
2023/07/05 06:11:35;;;;;;;6.60;3.50;;;15.80;99.90;;;16.25;100.00;97605.50;4963059;28;20560;-84
2023/07/05 06:14:07;;;;;;;6.33;3.30;;;15.70;99.90;;;16.21;100.00;97591.19;4960531;28;20509;-84
2023/07/05 06:16:36;;;;;;;11.10;3.13;;;15.80;99.90;;;16.07;100.00;97608.31;4960237;28;20556;-84
2023/07/05 06:19:04;;;;;;;25.37;13.23;;;15.70;99.90;;;16.01;100.00;97615.31;4960957;28;21039;-85
2023/07/05 06:21:33;;;;;;;6.50;3.40;;;15.70;99.90;;;15.98;100.00;97607.06;4963150;28;20462;-85
2023/07/05 06:24:02;;;;;;;4.07;2.50;;;15.60;99.90;;;16.03;100.00;97615.09;4960939;28;20499;-84
2023/07/05 06:26:30;;;;;;;4.80;2.80;;;15.60;99.90;;;16.11;100.00;97612.91;4960222;28;20471;-85
2023/07/05 06:29:00;;;;;;;6.70;3.10;;;15.60;99.90;;;16.18;100.00;97618.03;4963796;28;20461;-84
2023/07/05 06:31:33;;;;;;;4.90;2.80;;;15.60;99.90;;;16.24;100.00;97621.59;4962938;28;20465;-84
2023/07/05 06:34:08;;;;;;;12.20;3.20;;;15.70;99.90;;;16.21;100.00;97628.13;4962452;28;21007;-84
2023/07/05 06:36:36;;;;;;;7.13;3.27;;;15.80;99.90;;;16.16;100.00;97635.94;4959507;28;20530;-84
2023/07/05 06:39:05;;;;;;;7.33;3.97;;;15.70;99.90;;;16.21;100.00;97630.75;4965420;28;20472;-84
2023/07/05 06:41:34;;;;;;;6.07;2.40;;;15.70;99.90;;;16.27;100.00;97648.31;4961426;28;20986;-84
2023/07/05 06:44:04;;;;;;;5.63;2.90;;;15.70;99.90;;;16.25;100.00;97642.47;4965670;28;21065;-85
2023/07/05 06:46:32;;;;;;;6.10;3.17;;;15.80;99.90;;;16.36;100.00;97656.66;4961940;28;20464;-85
2023/07/05 06:49:04;;;;;;;6.10;3.10;;;15.80;99.90;;;16.38;100.00;97652.75;4962635;28;20975;-85
2023/07/05 06:51:33;;;;;;;6.40;3.37;;;15.90;99.90;;;16.29;100.00;97672.63;4960053;28;20491;-85
2023/07/05 06:54:01;;;;;;;4.37;3.07;;;15.80;99.90;;;16.37;100.00;97664.38;4962385;28;22143;-85
2023/07/05 06:56:30;;;;;;;5.40;2.90;;;15.90;99.90;;;16.38;100.00;97676.50;4958587;28;20473;-83
2023/07/05 06:58:58;;;;;;;5.57;3.03;;;15.90;99.90;;;16.35;100.00;97687.53;4959311;28;20470;-84
2023/07/05 07:01:28;;;;;;;5.63;3.00;;;16.00;99.90;;;16.25;100.00;97689.16;4958554;28;20491;-84
2023/07/05 07:03:57;;;;;;;4.50;2.47;;;15.90;99.90;;;16.26;100.00;97699.47;4958688;28;20466;-84
2023/07/05 07:06:26;;;;;;;4.93;2.70;;;15.80;99.80;;;16.30;100.00;97690.06;4963207;28;20990;-83
2023/07/05 07:08:54;;;;;;;3.37;2.67;;;15.90;99.90;;;16.28;100.00;97694.75;4955381;28;20481;-84
2023/07/05 07:11:23;;;;;;;5.43;2.40;;;15.90;98.70;;;16.27;100.00;97693.19;4960223;28;20470;-83
2023/07/05 07:13:52;;;;;;;3.53;2.27;;;15.80;98.60;;;16.27;100.00;97711.66;4960007;28;20478;-84
2023/07/05 07:16:20;;;;;;;3.03;2.40;;;15.80;98.70;;;16.30;100.00;97715.66;4957388;28;20465;-86
2023/07/05 07:18:51;;;;;;;4.93;2.47;;;15.80;98.50;;;16.29;99.52;97701.66;4959195;28;20476;-84
2023/07/05 07:21:21;;;;;;;5.03;2.07;;;15.80;98.00;;;16.42;100.00;97703.22;4958368;28;20465;-83
2023/07/05 07:23:51;;;;;;;5.50;2.00;;;15.90;98.80;;;16.41;99.28;97706.94;4953547;28;20484;-84
2023/07/05 07:26:22;;;;;;;4.63;2.17;;;15.90;98.00;;;16.54;100.00;97712.75;4957352;28;21044;-84
2023/07/05 07:28:54;;;;;;;2.47;1.80;;;16.00;98.70;;;16.54;99.40;97715.38;4960562;28;20469;-85
2023/07/05 07:31:26;;;;;;;4.90;1.90;;;16.20;98.20;;;16.59;97.62;97714.72;4958202;28;20477;-84
2023/07/05 07:33:57;;;;;;;2.57;1.83;;;16.10;97.90;;;16.68;97.70;97728.34;4958687;28;20469;-82
2023/07/05 07:36:29;;;;;;;10.60;2.80;;;16.10;98.00;;;16.75;98.08;97734.31;4958066;28;20518;-82
2023/07/05 07:38:59;;;;;;;4.07;2.27;;;16.10;98.00;;;16.75;97.81;97744.88;4956365;28;20464;-84
2023/07/05 07:41:31;;;;;;;4.23;2.53;;;16.20;98.00;;;16.69;97.29;97743.97;4962853;28;20483;-83
2023/07/05 07:44:07;;;;;;;3.57;2.07;;;16.30;97.80;;;16.71;98.69;97749.81;4958392;28;20465;-83
2023/07/05 07:46:38;;;;;;;33.17;20.50;;;16.20;98.00;;;16.75;98.53;97750.16;4956210;28;20461;-83
2023/07/05 07:49:11;;;;;;;3.73;2.10;;;16.20;98.20;;;16.74;97.61;97757.28;4956004;28;20516;-83
2023/07/05 07:51:44;;;;;;;2.80;2.10;;;16.20;97.80;;;16.74;98.35;97757.28;4956302;28;20497;-83
2023/07/05 07:54:16;;;;;;;8.83;2.17;;;16.30;98.10;;;16.77;98.16;97758.63;4961500;28;20473;-82
2023/07/05 07:56:46;;;;;;;4.20;2.23;;;16.30;98.00;;;16.77;98.72;97763.91;4959409;28;20472;-84
2023/07/05 07:59:17;;;;;;;3.40;2.03;;;16.30;97.90;;;16.79;97.65;97769.78;4956137;28;20478;-84
2023/07/05 08:01:46;;;;;;;2.70;1.90;;;16.30;97.70;;;16.73;95.73;97774.16;4959335;28;20534;-83
2023/07/05 08:04:17;;;;;;;5.43;2.80;;;16.30;97.30;;;16.75;94.19;97787.13;4955456;28;20481;-83
2023/07/05 08:06:50;;;;;;;1.90;1.37;;;16.30;97.00;;;16.81;93.79;97788.84;4958003;28;20830;-83
2023/07/05 08:09:21;;;;;;;36.93;17.33;;;16.30;97.00;;;16.78;92.53;97784.81;4958559;28;20480;-83
2023/07/05 08:11:50;;;;;;;2.50;1.50;;;16.30;96.70;;;16.84;92.38;97788.38;4954984;28;20473;-83
2023/07/05 08:14:19;;;;;;;3.13;1.70;;;16.40;97.00;;;16.92;92.96;97799.38;4960402;28;20464;-82
2023/07/05 08:16:48;;;;;;;3.43;1.30;;;16.40;97.10;;;16.88;91.12;97794.78;4958500;28;20464;-83
2023/07/05 08:19:19;;;;;;;4.23;2.03;;;16.30;96.30;;;16.89;92.38;97794.56;4960915;28;20464;-82
2023/07/05 08:21:48;;;;;;;2.63;1.50;;;16.40;96.70;;;16.92;91.66;97806.50;4957571;28;20474;-82
2023/07/05 08:24:17;;;;;;;4.80;1.87;;;16.30;96.50;;;16.94;91.81;97817.63;4961856;28;20480;-82
2023/07/05 08:26:49;;;;;;;2.03;1.73;;;16.30;96.80;;;16.89;91.88;97825.47;4963276;28;20520;-82
2023/07/05 08:29:18;;;;;;;2.13;1.70;;;16.40;96.80;;;16.90;92.85;97816.50;4961341;28;20495;-82
2023/07/05 08:31:47;;;;;;;4.33;1.53;;;16.40;96.90;;;16.87;91.88;97823.03;4960003;28;20465;-82
2023/07/05 08:34:20;;;;;;;3.17;1.90;;;16.40;96.60;;;16.74;91.30;97823.28;4958462;28;20469;-83
2023/07/05 08:36:49;;;;;;;5.70;1.70;;;16.40;96.50;;;16.78;92.30;97831.56;4961795;28;20536;-82
2023/07/05 08:39:17;;;;;;;2.23;1.50;;;16.40;96.70;;;16.84;92.93;97833.25;4959987;28;20481;-82
2023/07/05 08:42:21;;;;;;;3.93;2.20;;;16.30;96.90;;;16.84;93.06;97854.41;4959534;28;20488;-82
2023/07/05 08:45:03;;;;;;;6.73;2.07;;;16.40;97.30;;;16.78;93.15;97860.59;4958468;28;20468;-82
2023/07/05 08:47:44;;;;;;;6.90;1.80;;;16.40;96.70;;;16.80;93.95;97863.84;4958655;28;20514;-82
2023/07/05 08:50:26;;;;;;;4.80;1.37;;;16.40;97.00;;;16.82;93.93;97867.03;4960018;28;20478;-82
2023/07/05 08:53:06;;;;;;;3.40;1.40;;;16.30;96.80;;;16.69;92.04;97857.53;4959153;28;20472;-82
2023/07/05 08:55:56;;;;;;;2.90;1.73;;;16.20;96.30;;;16.83;93.85;97866.00;4959022;28;20480;-83
2023/07/05 08:58:33;;;;;;;4.27;1.60;;;16.30;97.20;;;16.91;94.53;97850.59;4959571;28;20820;-82
2023/07/05 09:01:07;;;;;;;8.17;1.90;;;16.40;97.30;;;16.96;94.54;97861.28;4962843;28;20534;-82
2023/07/05 09:03:35;;;;;;;12.13;1.80;;;16.40;97.20;;;17.01;93.33;97865.84;4960064;28;20588;-82
2023/07/05 09:06:24;;;;;;;5.07;1.50;;;16.50;96.90;;;17.01;92.15;97877.22;4957396;28;20470;-82
2023/07/05 09:09:23;;;;;;;2.90;1.60;;;16.50;96.60;;;16.93;90.05;97872.31;4965661;28;20468;-84
2023/07/05 09:12:11;;;;;;;3.33;1.87;;;16.50;96.50;;;17.03;91.43;97885.75;4962206;28;20481;-82
2023/07/05 09:15:14;;;;;;;11.40;1.80;;;16.60;96.60;;;17.10;91.41;97881.16;4961103;28;20477;-82
2023/07/05 09:17:53;;;;;;;5.70;1.53;;;16.60;96.50;;;17.12;90.49;97886.19;4963011;28;21032;-82
2023/07/05 09:20:38;;;;;;;2.80;1.57;;;16.60;96.40;;;17.16;92.14;97894.44;4964169;28;20548;-82
2023/07/05 09:23:15;;;;;;;2.83;1.70;;;16.70;96.80;;;17.17;91.06;97907.44;4961146;28;20476;-82
2023/07/05 09:25:48;;;;;;;5.27;1.83;;;16.70;96.40;;;17.01;90.83;97903.66;4961729;28;20467;-82
2023/07/05 09:28:31;;;;;;;6.03;2.00;;;16.70;96.20;;;16.91;89.82;97911.34;4959575;28;20491;-82
2023/07/05 09:31:01;;;;;;;5.17;2.17;;;16.60;95.80;;;16.91;90.02;97921.94;4966465;28;20846;-82
2023/07/05 09:33:38;;;;;;;4.27;1.90;;;16.50;96.10;;;17.02;89.61;97928.25;4961370;28;21247;-82
2023/07/05 09:36:20;;;;;;;5.33;1.87;;;16.50;96.20;;;17.00;88.77;97922.41;4962500;28;20526;-82
2023/07/05 09:38:56;;;;;;;2.23;1.50;;;16.50;95.80;;;16.98;88.92;97941.09;4962016;28;20475;-82
2023/07/05 09:41:46;;;;;;;3.80;1.37;;;16.60;95.80;;;17.03;89.14;97957.09;4965729;28;20498;-83
2023/07/05 09:44:18;;;;;;;3.17;1.80;;;16.60;95.90;;;17.13;89.35;97942.47;4965563;28;20467;-83
2023/07/05 09:46:47;;;;;;;2.20;1.30;;;16.60;96.20;;;17.18;89.53;97953.94;4968511;28;20464;-83
2023/07/05 09:49:20;;;;;;;7.00;1.93;;;16.70;96.30;;;17.20;88.65;97946.63;4963757;28;20485;-83
2023/07/05 09:51:49;;;;;;;2.30;1.30;;;16.70;95.90;;;17.25;87.71;97946.72;4966147;28;20548;-84
2023/07/05 09:54:25;;;;;;;4.63;1.80;;;16.80;95.80;;;17.36;87.47;97953.03;4964179;28;20477;-83
2023/07/05 09:57:04;;;;;;;2.70;1.60;;;16.80;95.70;;;17.37;85.45;97955.44;4963471;28;20503;-83
2023/07/05 09:59:35;;;;;;;2.77;1.57;;;16.90;95.30;;;17.45;86.03;97941.06;4963685;28;20547;-83
2023/07/05 10:02:19;;;;;;;2.70;1.57;;;16.90;95.40;;;17.53;85.46;97945.97;4966471;28;20519;-83
2023/07/05 10:04:50;;;;;;;3.30;1.60;;;16.90;95.30;;;17.48;83.98;97940.59;4962281;28;20468;-83
2023/07/05 10:07:22;;;;;;;3.30;1.90;;;17.00;94.90;;;17.42;84.22;97942.31;4960990;28;20476;-83
2023/07/05 10:10:05;;;;;;;6.83;1.97;;;17.10;95.00;;;17.49;84.24;97948.28;4961141;28;20496;-83
2023/07/05 10:12:36;;;;;;;5.80;2.13;;;16.90;95.00;;;17.54;85.71;97945.75;4960537;28;20567;-83
2023/07/05 10:15:20;;;;;;;7.03;2.30;;;17.00;95.40;;;17.57;84.98;97940.03;4960167;28;21091;-83
2023/07/05 10:17:52;;;;;;;5.07;2.13;;;17.10;95.00;;;17.56;84.12;97941.06;4962384;28;20496;-83
2023/07/05 10:20:25;;;;;;;3.73;1.50;;;17.20;94.70;;;17.58;84.28;97952.22;4962808;28;20466;-83
2023/07/05 10:23:04;;;;;;;7.20;1.67;;;17.10;94.80;;;17.64;84.15;97947.00;4960250;28;20465;-83
2023/07/05 10:25:40;;;;;;;6.80;2.70;;;17.10;94.80;;;17.69;83.65;97937.34;4960855;28;20995;-84
2023/07/05 10:28:17;;;;;;;3.07;1.77;;;17.10;94.90;;;17.68;80.59;97934.94;4963686;28;20496;-83
2023/07/05 10:30:50;;;;;;;2.17;1.50;;;17.10;93.90;;;17.68;79.62;97925.16;4962431;28;20498;-83
2023/07/05 10:33:24;;;;;;;2.63;1.50;;;17.20;93.90;;;17.77;79.77;97936.97;4961954;28;20507;-84
2023/07/05 10:36:04;;;;;;;6.50;2.27;;;17.20;94.20;;;17.79;78.74;97931.44;4963100;28;20484;-84
2023/07/05 10:38:45;;;;;;;1.90;1.43;;;17.40;93.70;;;17.86;79.41;97930.28;4962918;28;20473;-83
2023/07/05 10:41:28;;;;;;;3.60;1.80;;;17.30;94.00;;;18.00;80.78;97928.16;4964913;28;20534;-85
2023/07/05 10:44:07;;;;;;;3.63;2.20;;;17.40;94.50;;;18.07;78.27;97928.81;4962132;28;20468;-83
2023/07/05 10:46:39;;;;;;;1.73;1.47;;;17.50;93.80;;;18.03;75.43;97932.97;4979867;28;20471;-83